createdAt,value
2019-02-15T00:00:26.173Z,97201.6
2019-02-15T00:01:28.351Z,97199.9
2019-02-15T00:02:30.771Z,97201.6
2019-02-15T00:03:33.196Z,97196
2019-02-15T00:04:35.619Z,97196.4
2019-02-15T00:05:37.776Z,97196.5
2019-02-15T00:06:39.943Z,97191.9
2019-02-15T00:07:41.836Z,97192.2
2019-02-15T00:08:43.980Z,97191
2019-02-15T00:09:46.399Z,97191.6
2019-02-15T00:10:48.830Z,97189.7
2019-02-15T00:11:51.272Z,97192.8
2019-02-15T00:12:53.455Z,97189
2019-02-15T00:13:55.881Z,97189.8
2019-02-15T00:14:58.044Z,97191
2019-02-15T00:16:00.474Z,97187.8
2019-02-15T00:17:02.633Z,97186.6
2019-02-15T00:18:05.064Z,97186.4
2019-02-15T00:19:07.488Z,97188.8
2019-02-15T00:20:09.349Z,97189.9
2019-02-15T00:21:11.249Z,97188.6
2019-02-15T00:22:13.383Z,97187.7
2019-02-15T00:23:15.539Z,97188.6
2019-02-15T00:24:17.673Z,97189
2019-02-15T00:25:20.104Z,97187.3
2019-02-15T00:26:22.273Z,97182.5
2019-02-15T00:27:24.736Z,97186.5
2019-02-15T00:28:26.885Z,97186.4
2019-02-15T00:29:29.023Z,97186.1
2019-02-15T00:30:31.451Z,97185.7
2019-02-15T00:31:33.895Z,97185.6
2019-02-15T00:32:36.057Z,97183.5
2019-02-15T00:33:38.199Z,97179.3
2019-02-15T00:34:40.633Z,97181.1
2019-02-15T00:35:43.057Z,97177.8
2019-02-15T00:36:45.486Z,97174.7
2019-02-15T00:37:47.921Z,97171.9
2019-02-15T00:38:50.362Z,97179.8
2019-02-15T00:39:52.785Z,97170.9
2019-02-15T00:40:55.215Z,97172.2
2019-02-15T00:41:57.643Z,97168.2
2019-02-15T00:42:59.544Z,97162.8
2019-02-15T00:44:01.964Z,97165.2
2019-02-15T00:45:04.402Z,97169.8
2019-02-15T00:46:06.834Z,97167.5
2019-02-15T00:47:09.259Z,97173.2
2019-02-15T00:48:11.408Z,97176.2
2019-02-15T00:49:13.843Z,97174.6
2019-02-15T00:50:16.268Z,97171.1
2019-02-15T00:51:18.690Z,97170.7
2019-02-15T00:52:20.851Z,97168.9
2019-02-15T00:53:23.008Z,97169.2
2019-02-15T00:54:25.421Z,97169.3
2019-02-15T00:55:27.581Z,97169.5
2019-02-15T00:56:29.760Z,97174.3
2019-02-15T00:57:32.182Z,97174.5
2019-02-15T00:58:34.343Z,97175.1
2019-02-15T00:59:35.943Z,97177
2019-02-15T01:00:38.107Z,97174.5
2019-02-15T01:01:40.272Z,97182.4
2019-02-15T01:02:42.704Z,97179.8
2019-02-15T01:03:44.571Z,97180.8
2019-02-15T01:04:46.737Z,97179.4
2019-02-15T01:05:49.177Z,97182.6
2019-02-15T01:06:51.603Z,97181.8
2019-02-15T01:07:54.034Z,97180.2
2019-02-15T01:08:56.202Z,97181.3
2019-02-15T01:09:58.351Z,97182.5
2019-02-15T01:11:00.772Z,97182
2019-02-15T01:12:02.924Z,97181
2019-02-15T01:13:05.357Z,97179.2
2019-02-15T01:14:07.228Z,97178.4
2019-02-15T01:15:09.653Z,97180.3
2019-02-15T01:16:11.247Z,97175.6
2019-02-15T01:17:13.388Z,97179.6
2019-02-15T01:18:15.812Z,97179.9
2019-02-15T01:19:18.233Z,97178.6
2019-02-15T01:20:20.660Z,97178.4
2019-02-15T01:21:23.094Z,97179.3
2019-02-15T01:22:25.574Z,97179
2019-02-15T01:23:28.001Z,97176.7
2019-02-15T01:24:30.176Z,97170.4
2019-02-15T01:25:32.608Z,97173.8
2019-02-15T01:26:35.043Z,97176.4
2019-02-15T01:27:37.201Z,97172.3
2019-02-15T01:28:39.365Z,97174.7
2019-02-15T01:29:41.531Z,97170.1
2019-02-15T01:30:43.970Z,97168.7
2019-02-15T01:31:46.127Z,97167.6
2019-02-15T01:32:48.555Z,97168.3
2019-02-15T01:33:50.728Z,97172.8
2019-02-15T01:34:52.885Z,97168.7
2019-02-15T01:35:55.309Z,97170.8
2019-02-15T01:36:57.734Z,97169.5
2019-02-15T01:37:59.887Z,97166.7
2019-02-15T01:39:02.303Z,97166.7
2019-02-15T01:40:04.451Z,97164.1
2019-02-15T01:41:06.887Z,97166.2
2019-02-15T01:42:09.310Z,97165.9
2019-02-15T01:43:11.728Z,97163.3
2019-02-15T01:44:14.154Z,97158.8
2019-02-15T01:45:16.582Z,97162.2
2019-02-15T01:46:19.018Z,97161.1
2019-02-15T01:47:21.174Z,97156.1
2019-02-15T01:48:23.335Z,97158.3
2019-02-15T01:49:25.497Z,97155.5
2019-02-15T01:50:27.929Z,97153
2019-02-15T01:51:30.340Z,97148.4
2019-02-15T01:52:32.490Z,97149.3
2019-02-15T01:53:34.643Z,97145.7
2019-02-15T01:54:37.071Z,97141
2019-02-15T01:55:39.493Z,97144
2019-02-15T01:56:41.922Z,97145.9
2019-02-15T01:57:44.358Z,97144.2
2019-02-15T01:58:46.501Z,97146.9
2019-02-15T01:59:48.931Z,97139.8
2019-02-15T02:00:51.362Z,97147.9
2019-02-15T02:01:53.249Z,97144.4
2019-02-15T02:02:55.670Z,97144.2
2019-02-15T02:03:57.823Z,97146.1
2019-02-15T02:05:00.291Z,97148
2019-02-15T02:06:02.700Z,97144
2019-02-15T02:07:04.871Z,97148
2019-02-15T02:08:07.005Z,97146.5
2019-02-15T02:09:09.423Z,97145.2
2019-02-15T02:10:11.574Z,97141.8
2019-02-15T02:11:13.439Z,97134.1
2019-02-15T02:12:15.863Z,97137.6
2019-02-15T02:13:18.032Z,97134.7
2019-02-15T02:14:20.450Z,97137.8
2019-02-15T02:15:22.890Z,97140.4
2019-02-15T02:16:25.304Z,97139.8
2019-02-15T02:17:27.455Z,97140.7
2019-02-15T02:18:29.615Z,97141.7
2019-02-15T02:19:31.491Z,97136.5
2019-02-15T02:20:33.656Z,97141.7
2019-02-15T02:21:36.091Z,97143
2019-02-15T02:22:38.574Z,97142.2
2019-02-15T02:23:41.012Z,97140.1
2019-02-15T02:24:43.461Z,97136.1
2019-02-15T02:25:45.623Z,97135.4
2019-02-15T02:26:48.055Z,97133.3
2019-02-15T02:27:50.533Z,97136
2019-02-15T02:28:52.148Z,97136
2019-02-15T02:29:54.301Z,97135.2
2019-02-15T02:30:56.724Z,97135.9
2019-02-15T02:31:58.900Z,97138.1
2019-02-15T02:33:01.097Z,97137.9
2019-02-15T02:34:03.274Z,97134.1
2019-02-15T02:35:05.695Z,97138.4
2019-02-15T02:36:07.825Z,97140.5
2019-02-15T02:37:10.254Z,97133.5
2019-02-15T02:38:12.416Z,97136.9
2019-02-15T02:39:14.841Z,97137.6
2019-02-15T02:40:17.010Z,97136.5
2019-02-15T02:41:19.157Z,97136.1
2019-02-15T02:42:21.294Z,97135.5
2019-02-15T02:43:23.450Z,97136.1
2019-02-15T02:44:25.874Z,97139.4
2019-02-15T02:45:28.309Z,97134.5
2019-02-15T02:46:30.184Z,97132
2019-02-15T02:47:32.094Z,97134.4
2019-02-15T02:48:34.514Z,97136.2
2019-02-15T02:49:36.948Z,97135.5
2019-02-15T02:50:39.366Z,97130.6
2019-02-15T02:51:41.812Z,97133.6
2019-02-15T02:52:43.706Z,97133.9
2019-02-15T02:53:46.154Z,97137.9
2019-02-15T02:54:48.582Z,97134.3
2019-02-15T02:55:50.724Z,97135
2019-02-15T02:56:53.273Z,97134.4
2019-02-15T02:57:54.874Z,97132.9
2019-02-15T02:58:57.033Z,97133.8
2019-02-15T02:59:59.462Z,97130.4
2019-02-15T03:01:01.635Z,97129.2
2019-02-15T03:02:04.054Z,97126.2
2019-02-15T03:03:06.474Z,97125.4
2019-02-15T03:04:08.895Z,97125.4
2019-02-15T03:05:11.321Z,97124
2019-02-15T03:06:13.488Z,97125
2019-02-15T03:07:15.914Z,97121
2019-02-15T03:08:18.076Z,97121.7
2019-02-15T03:09:20.517Z,97123.6
2019-02-15T03:10:22.944Z,97123.5
2019-02-15T03:11:25.101Z,97121.3
2019-02-15T03:12:27.266Z,97120.8
2019-02-15T03:13:29.688Z,97119.9
2019-02-15T03:14:32.117Z,97119.4
2019-02-15T03:15:34.538Z,97115.4
2019-02-15T03:16:36.972Z,97111.7
2019-02-15T03:17:39.123Z,97116.2
2019-02-15T03:18:41.556Z,97115
2019-02-15T03:19:43.709Z,97118.1
2019-02-15T03:20:45.864Z,97122.6
2019-02-15T03:21:48.012Z,97117
2019-02-15T03:22:50.430Z,97115.5
2019-02-15T03:23:52.866Z,97117.5
2019-02-15T03:24:55.295Z,97114.6
2019-02-15T03:25:57.472Z,97112.7
2019-02-15T03:26:59.902Z,97118.8
2019-02-15T03:28:02.048Z,97120.5
2019-02-15T03:29:04.200Z,97117.5
2019-02-15T03:30:06.652Z,97113.1
2019-02-15T03:31:09.103Z,97114.2
2019-02-15T03:32:11.017Z,97114.5
2019-02-15T03:33:13.461Z,97111.8
2019-02-15T03:34:15.898Z,97112.5
2019-02-15T03:35:18.318Z,97113.5
2019-02-15T03:36:20.754Z,97116.7
2019-02-15T03:37:23.179Z,97113.4
2019-02-15T03:38:25.058Z,97113.7
2019-02-15T03:39:27.491Z,97111.8
2019-02-15T03:40:29.916Z,97115.7
2019-02-15T03:41:32.380Z,97117.8
2019-02-15T03:42:34.799Z,97115.2
2019-02-15T03:43:36.973Z,97115.9
2019-02-15T03:44:39.404Z,97116.1
2019-02-15T03:45:41.831Z,97114.6
2019-02-15T03:46:43.975Z,97115.7
2019-02-15T03:47:46.124Z,97117.1
2019-02-15T03:48:48.550Z,97115.8
2019-02-15T03:49:50.486Z,97117
2019-02-15T03:50:52.616Z,97112.9
2019-02-15T03:51:54.768Z,97116.1
2019-02-15T03:52:57.201Z,97120.3
2019-02-15T03:53:59.647Z,97116.4
2019-02-15T03:55:02.073Z,97115.4
2019-02-15T03:56:04.491Z,97112.7
2019-02-15T03:57:06.634Z,97115.8
2019-02-15T03:58:08.523Z,97113.9
2019-02-15T03:59:10.946Z,97114.4
2019-02-15T04:00:13.109Z,97111.7
2019-02-15T04:01:15.277Z,97111
2019-02-15T04:02:17.439Z,97106.9
2019-02-15T04:03:19.878Z,97110.8
2019-02-15T04:04:22.288Z,97111.5
2019-02-15T04:05:24.701Z,97111.5
2019-02-15T04:06:27.184Z,97107.9
2019-02-15T04:07:29.625Z,97105.6
2019-02-15T04:08:31.509Z,97104.4
2019-02-15T04:09:33.938Z,97104.9
2019-02-15T04:10:36.364Z,97102.8
2019-02-15T04:11:38.542Z,97106.1
2019-02-15T04:12:40.975Z,97104.5
2019-02-15T04:13:43.438Z,97102.4
2019-02-15T04:14:45.875Z,97099.5
2019-02-15T04:15:48.017Z,97101.8
2019-02-15T04:16:49.900Z,97103.6
2019-02-15T04:17:52.322Z,97098.4
2019-02-15T04:18:54.480Z,97102.5
2019-02-15T04:19:56.904Z,97100.4
2019-02-15T04:20:59.337Z,97106.1
2019-02-15T04:22:01.522Z,97104.8
2019-02-15T04:23:03.961Z,97105.2
2019-02-15T04:24:06.391Z,97103.2
2019-02-15T04:25:08.843Z,97106.1
2019-02-15T04:26:10.996Z,97110.8
2019-02-15T04:27:13.484Z,97109.4
2019-02-15T04:28:16.017Z,97111.5
2019-02-15T04:29:18.519Z,97111
2019-02-15T04:30:21.096Z,97113.1
2019-02-15T04:31:23.289Z,97111.5
2019-02-15T04:32:25.476Z,97112.4
2019-02-15T04:33:27.647Z,97110.9
2019-02-15T04:34:30.130Z,97114.7
2019-02-15T04:35:32.305Z,97113.1
2019-02-15T04:36:34.737Z,97116.7
2019-02-15T04:37:37.160Z,97115.5
2019-02-15T04:38:39.589Z,97117.6
2019-02-15T04:39:41.468Z,97119.9
2019-02-15T04:40:43.884Z,97114.3
2019-02-15T04:41:46.117Z,97115.9
2019-02-15T04:42:48.258Z,97112.9
2019-02-15T04:43:50.685Z,97110.3
2019-02-15T04:44:52.831Z,97106.3
2019-02-15T04:45:55.259Z,97109.6
2019-02-15T04:46:57.105Z,97111.7
2019-02-15T04:47:59.255Z,97109.4
2019-02-15T04:49:01.405Z,97112.4
2019-02-15T04:50:03.554Z,97111.3
2019-02-15T04:51:06.007Z,97106.5
2019-02-15T04:52:08.424Z,97108.8
2019-02-15T04:53:10.553Z,97108.4
2019-02-15T04:54:12.981Z,97108.6
2019-02-15T04:55:15.132Z,97108.5
2019-02-15T04:56:17.554Z,97105.9
2019-02-15T04:57:19.714Z,97109.1
2019-02-15T04:58:22.149Z,97106.3
2019-02-15T04:59:24.043Z,97101.6
2019-02-15T05:00:26.464Z,97106.8
2019-02-15T05:01:28.898Z,97103.1
2019-02-15T05:02:31.054Z,97097.8
2019-02-15T05:03:33.479Z,97099.8
2019-02-15T05:04:35.616Z,97100.8
2019-02-15T05:05:38.048Z,97103
2019-02-15T05:06:40.198Z,97108.5
2019-02-15T05:07:42.619Z,97104.6
2019-02-15T05:08:44.763Z,97100.8
2019-02-15T05:09:46.939Z,97101.9
2019-02-15T05:10:49.380Z,97097.1
2019-02-15T05:11:51.797Z,97093.5
2019-02-15T05:12:53.944Z,97091.6
2019-02-15T05:13:56.392Z,97088.6
2019-02-15T05:14:58.838Z,97085.5
2019-02-15T05:16:01.265Z,97085.9
2019-02-15T05:17:03.144Z,97090.9
2019-02-15T05:18:05.294Z,97085.6
2019-02-15T05:19:07.710Z,97083.2
2019-02-15T05:20:09.847Z,97083.3
2019-02-15T05:21:14.303Z,97085.8
2019-02-15T05:22:16.474Z,97084.4
2019-02-15T05:23:18.606Z,97083.5
2019-02-15T05:24:20.753Z,97083.6
2019-02-15T05:25:23.194Z,97084.4
2019-02-15T05:26:25.085Z,97081.5
2019-02-15T05:27:27.234Z,97084.8
2019-02-15T05:28:29.663Z,97085.8
2019-02-15T05:29:32.087Z,97085.2
2019-02-15T05:30:34.505Z,97081.7
2019-02-15T05:31:36.934Z,97084.3
2019-02-15T05:32:39.355Z,97078.6
2019-02-15T05:33:41.767Z,97075.6
2019-02-15T05:34:44.193Z,97075.8
2019-02-15T05:35:46.626Z,97079.6
2019-02-15T05:36:49.051Z,97077.7
2019-02-15T05:37:51.474Z,97077.9
2019-02-15T05:38:53.891Z,97079.4
2019-02-15T05:39:56.324Z,97080.1
2019-02-15T05:40:58.743Z,97077.3
2019-02-15T05:42:01.162Z,97080.5
2019-02-15T05:43:03.640Z,97074.7
2019-02-15T05:44:06.061Z,97070.8
2019-02-15T05:45:08.485Z,97075.1
2019-02-15T05:46:10.900Z,97069.2
2019-02-15T05:47:13.048Z,97073.5
2019-02-15T05:48:15.197Z,97072.3
2019-02-15T05:49:17.693Z,97067.9
2019-02-15T05:50:20.134Z,97068.6
2019-02-15T05:51:22.271Z,97067.3
2019-02-15T05:52:24.462Z,97063.5
2019-02-15T05:53:26.915Z,97065.8
2019-02-15T05:54:29.325Z,97064.7
2019-02-15T05:55:31.752Z,97068.2
2019-02-15T05:56:33.908Z,97061.3
2019-02-15T05:57:36.039Z,97062.1
2019-02-15T05:58:38.183Z,97063.4
2019-02-15T05:59:40.604Z,97063.6
2019-02-15T06:00:43.025Z,97066.2
2019-02-15T06:01:45.450Z,97065.1
2019-02-15T06:02:48.242Z,97058.4
2019-02-15T06:03:50.693Z,97060.5
2019-02-15T06:04:53.072Z,97062.1
2019-02-15T06:05:55.513Z,97063.5
2019-02-15T06:06:57.932Z,97060.7
2019-02-15T06:08:00.345Z,97065.7
2019-02-15T06:09:02.482Z,97061.6
2019-02-15T06:10:04.901Z,97064
2019-02-15T06:12:11.795Z,97062.7
2019-02-15T06:13:14.235Z,97059.9
2019-02-15T06:14:16.718Z,97065.9
2019-02-15T06:15:19.150Z,97069
2019-02-15T06:16:21.000Z,97071.5
2019-02-15T06:17:23.493Z,97070.9
2019-02-15T06:18:25.979Z,97064.3
2019-02-15T06:19:28.146Z,97066.6
2019-02-15T06:20:30.281Z,97071.7
2019-02-15T06:21:32.712Z,97066.9
2019-02-15T06:22:35.152Z,97065.6
2019-02-15T06:23:37.056Z,97065.7
2019-02-15T06:24:39.464Z,97065.4
2019-02-15T06:25:41.896Z,97067
2019-02-15T06:26:44.042Z,97061.8
2019-02-15T06:27:46.202Z,97064.6
2019-02-15T06:28:48.557Z,97066.3
2019-02-15T06:29:50.704Z,97070.1
2019-02-15T06:30:52.846Z,97068.9
2019-02-15T06:31:55.280Z,97067.4
2019-02-15T06:32:57.454Z,97071.3
2019-02-15T06:33:59.606Z,97070.8
2019-02-15T06:35:02.071Z,97068.1
2019-02-15T06:36:04.238Z,97071.2
2019-02-15T06:37:06.683Z,97074.7
2019-02-15T06:38:09.101Z,97072.9
2019-02-15T06:39:11.524Z,97074.2
2019-02-15T06:40:13.966Z,97074.6
2019-02-15T06:41:16.424Z,97075.9
2019-02-15T06:42:18.055Z,97080.5
2019-02-15T06:43:20.488Z,97076.4
2019-02-15T06:44:22.647Z,97079.5
2019-02-15T06:45:26.865Z,97082
2019-02-15T06:46:29.288Z,97080.7
2019-02-15T06:47:31.426Z,97082.2
2019-02-15T06:48:33.287Z,97080.4
2019-02-15T06:49:35.425Z,97085.1
2019-02-15T06:50:37.595Z,97085.3
2019-02-15T06:51:40.036Z,97086.5
2019-02-15T06:52:42.211Z,97083.3
2019-02-15T06:53:44.644Z,97086.1
2019-02-15T06:54:47.455Z,97085.4
2019-02-15T06:55:49.998Z,97085.8
2019-02-15T06:56:52.157Z,97088.6
2019-02-15T06:57:54.594Z,97089.9
2019-02-15T06:58:56.464Z,97091
2019-02-15T06:59:58.633Z,97087.9
2019-02-15T07:01:01.061Z,97096.5
2019-02-15T07:02:03.505Z,97092.4
2019-02-15T07:03:05.930Z,97099.1
2019-02-15T07:04:07.526Z,97094.1
2019-02-15T07:05:09.697Z,97100.8
2019-02-15T07:06:11.866Z,97105.8
2019-02-15T07:07:14.026Z,97101.7
2019-02-15T07:08:16.473Z,97105.3
2019-02-15T07:09:18.629Z,97103.1
2019-02-15T07:10:20.780Z,97105.8
2019-02-15T07:11:22.915Z,97107
2019-02-15T07:12:25.353Z,97102
2019-02-15T07:13:27.516Z,97105
2019-02-15T07:14:29.684Z,97103.8
2019-02-15T07:16:37.084Z,97106.9
2019-02-15T07:17:39.511Z,97111.3
2019-02-15T07:18:42.020Z,97108.2
2019-02-15T07:19:45.363Z,97107
2019-02-15T07:20:48.001Z,97106.8
2019-02-15T07:21:50.420Z,97110.1
2019-02-15T07:22:52.572Z,97110.1
2019-02-15T07:23:55.017Z,97107.4
2019-02-15T07:24:57.216Z,97109.8
2019-02-15T07:25:59.678Z,97108.5
2019-02-15T07:27:02.096Z,97114.6
2019-02-15T07:28:04.547Z,97106.8
2019-02-15T07:29:06.414Z,97111.5
2019-02-15T07:30:08.575Z,97109
2019-02-15T07:31:09.916Z,97111
2019-02-15T07:32:12.061Z,97109.1
2019-02-15T07:33:14.206Z,97113.1
2019-02-15T07:34:16.370Z,97113.1
2019-02-15T07:35:18.520Z,97116
2019-02-15T07:36:20.963Z,97109.5
2019-02-15T07:37:23.121Z,97110.4
2019-02-15T07:38:25.545Z,97110.4
2019-02-15T07:39:27.980Z,97110.6
2019-02-15T07:40:30.407Z,97115.8
2019-02-15T07:41:32.261Z,97111.6
2019-02-15T07:42:34.405Z,97105.8
2019-02-15T07:43:36.555Z,97107.9
2019-02-15T07:44:38.484Z,97107.8
2019-02-15T07:46:45.348Z,97099.8
2019-02-15T07:47:47.493Z,97093.3
2019-02-15T07:48:50.089Z,97096.1
2019-02-15T07:49:52.250Z,97094.9
2019-02-15T07:50:56.007Z,97095
2019-02-15T07:51:58.441Z,97094.9
2019-02-15T07:53:00.609Z,97094.4
2019-02-15T07:54:02.771Z,97096.9
2019-02-15T07:55:05.201Z,97101
2019-02-15T07:56:07.359Z,97098.6
2019-02-15T07:57:09.833Z,97104.2
2019-02-15T07:58:12.247Z,97102.1
2019-02-15T07:59:14.122Z,97100.2
2019-02-15T08:00:16.555Z,97100.6
2019-02-15T08:01:18.982Z,97103
2019-02-15T08:02:20.874Z,97097.5
2019-02-15T08:03:23.056Z,97105
2019-02-15T08:04:25.208Z,97103.1
2019-02-15T08:05:27.420Z,97102.6
2019-02-15T08:06:29.556Z,97097.8
2019-02-15T08:07:32.052Z,97092
2019-02-15T08:08:34.242Z,97097.1
2019-02-15T08:09:36.395Z,97102.4
2019-02-15T08:10:40.489Z,97093.6
2019-02-15T08:11:42.356Z,97095.9
2019-02-15T08:12:44.785Z,97092.6
2019-02-15T08:13:47.214Z,97093.7
2019-02-15T08:14:49.646Z,97089.6
2019-02-15T08:15:53.729Z,97090.5
2019-02-15T08:16:56.157Z,97087.7
2019-02-15T08:17:58.584Z,97089.7
2019-02-15T08:19:00.747Z,97090
2019-02-15T08:20:02.922Z,97086.9
2019-02-15T08:21:05.078Z,97088.3
2019-02-15T08:22:07.257Z,97089.1
2019-02-15T08:23:09.683Z,97084.4
2019-02-15T08:24:12.144Z,97089.4
2019-02-15T08:25:14.572Z,97090.4
2019-02-15T08:26:17.002Z,97089.2
2019-02-15T08:27:19.170Z,97092
2019-02-15T08:28:21.066Z,97090.4
2019-02-15T08:29:23.495Z,97092.1
2019-02-15T08:30:25.934Z,97091.6
2019-02-15T08:31:28.366Z,97089
2019-02-15T08:32:30.798Z,97093.4
2019-02-15T08:33:33.214Z,97094.4
2019-02-15T08:34:35.642Z,97091.7
2019-02-15T08:35:37.803Z,97096.2
2019-02-15T08:36:39.961Z,97094.6
2019-02-15T08:37:42.416Z,97092.5
2019-02-15T08:38:44.586Z,97095.1
2019-02-15T08:39:47.026Z,97094.3
2019-02-15T08:40:49.352Z,97093.4
2019-02-15T08:42:57.502Z,97097.8
2019-02-15T08:43:59.931Z,97092.5
2019-02-15T08:45:02.351Z,97095.3
2019-02-15T08:46:04.695Z,97092.2
2019-02-15T08:47:06.860Z,97092.3
2019-02-15T08:48:09.285Z,97096.4
2019-02-15T08:49:11.711Z,97100.5
2019-02-15T08:50:13.856Z,97097.7
2019-02-15T08:51:15.761Z,97097.4
2019-02-15T08:52:18.186Z,97095
2019-02-15T08:53:20.346Z,97095.9
2019-02-15T08:54:22.533Z,97096.6
2019-02-15T08:55:24.672Z,97098.9
2019-02-15T08:56:27.119Z,97101.3
2019-02-15T08:57:29.574Z,97098.9
2019-02-15T08:58:31.739Z,97102.4
2019-02-15T08:59:34.167Z,97106.7
2019-02-15T09:00:36.357Z,97105.8
2019-02-15T09:01:38.788Z,97105.5
2019-02-15T09:02:40.936Z,97104.2
2019-02-15T09:03:43.352Z,97103.5
2019-02-15T09:04:45.503Z,97104.1
2019-02-15T09:05:47.858Z,97104.8
2019-02-15T09:06:50.278Z,97106.7
2019-02-15T09:07:52.425Z,97101.1
2019-02-15T09:08:54.606Z,97108.3
2019-02-15T09:09:56.798Z,97105.7
2019-02-15T09:10:59.009Z,97104.9
2019-02-15T09:12:01.451Z,97106.9
2019-02-15T09:13:03.949Z,97107.9
2019-02-15T09:14:06.178Z,97110.5
2019-02-15T09:15:08.610Z,97112.4
2019-02-15T09:16:12.105Z,97107.1
2019-02-15T09:17:14.546Z,97110.1
2019-02-15T09:18:16.705Z,97116.2
2019-02-15T09:19:18.859Z,97109.4
2019-02-15T09:20:21.303Z,97118.4
2019-02-15T09:21:23.450Z,97116
2019-02-15T09:22:25.904Z,97118.7
2019-02-15T09:23:28.067Z,97117.7
2019-02-15T09:24:30.501Z,97116
2019-02-15T09:25:32.415Z,97115.8
2019-02-15T09:26:34.025Z,97115.7
2019-02-15T09:27:36.185Z,97115.4
2019-02-15T09:28:38.342Z,97117.5
2019-02-15T09:29:40.219Z,97121.9
2019-02-15T09:30:42.088Z,97120.5
2019-02-15T09:31:44.253Z,97122.9
2019-02-15T09:32:46.701Z,97122.8
2019-02-15T09:33:49.104Z,97123.1
2019-02-15T09:34:51.524Z,97121.5
2019-02-15T09:35:53.685Z,97118.6
2019-02-15T09:36:56.167Z,97119.9
2019-02-15T09:37:58.592Z,97121.8
2019-02-15T09:39:00.205Z,97121.6
2019-02-15T09:40:02.671Z,97121.1
2019-02-15T09:41:04.831Z,97119.2
2019-02-15T09:42:07.267Z,97118.6
2019-02-15T09:43:09.704Z,97121.7
2019-02-15T09:44:12.138Z,97121.4
2019-02-15T09:45:14.561Z,97116.6
2019-02-15T09:47:21.700Z,97118.8
2019-02-15T09:48:24.125Z,97117.7
2019-02-15T09:49:26.564Z,97125.2
2019-02-15T09:50:28.995Z,97121.9
2019-02-15T09:51:30.860Z,97125.2
2019-02-15T09:52:33.277Z,97125.8
2019-02-15T09:53:35.478Z,97125.4
2019-02-15T09:54:37.656Z,97119.5
2019-02-15T09:55:40.105Z,97121
2019-02-15T09:56:41.763Z,97121.9
2019-02-15T09:57:44.195Z,97122.6
2019-02-15T09:58:46.633Z,97122.6
2019-02-15T09:59:49.105Z,97119.8
2019-02-15T10:00:51.260Z,97123
2019-02-15T10:01:53.706Z,97121.2
2019-02-15T10:02:55.871Z,97123
2019-02-15T10:03:58.294Z,97118
2019-02-15T10:05:00.456Z,97121.4
2019-02-15T10:06:02.894Z,97121.6
2019-02-15T10:07:05.319Z,97120.3
2019-02-15T10:08:07.748Z,97114.1
2019-02-15T10:09:10.191Z,97116.1
2019-02-15T10:10:12.632Z,97116.4
2019-02-15T10:11:14.531Z,97111.9
2019-02-15T10:12:16.394Z,97115.8
2019-02-15T10:13:18.559Z,97115.5
2019-02-15T10:14:20.731Z,97116.8
2019-02-15T10:15:23.177Z,97113
2019-02-15T10:17:30.599Z,97114.8
2019-02-15T10:18:32.751Z,97116.9
2019-02-15T10:19:34.893Z,97114.3
2019-02-15T10:20:37.324Z,97113.9
2019-02-15T10:21:39.770Z,97112.2
2019-02-15T10:22:42.204Z,97116.5
2019-02-15T10:23:44.656Z,97109.2
2019-02-15T10:24:47.128Z,97113.9
2019-02-15T10:25:49.312Z,97109.7
2019-02-15T10:26:51.492Z,97108.7
2019-02-15T10:27:53.911Z,97105
2019-02-15T10:28:55.809Z,97105.4
2019-02-15T10:29:57.972Z,97105.4
2019-02-15T10:31:00.148Z,97108.1
2019-02-15T10:32:02.589Z,97109.6
2019-02-15T10:33:04.769Z,97103.2
2019-02-15T10:34:06.930Z,97098.5
2019-02-15T10:35:09.364Z,97099.8
2019-02-15T10:36:11.793Z,97104.8
2019-02-15T10:37:14.225Z,97102.3
2019-02-15T10:38:16.090Z,97101.7
2019-02-15T10:39:18.238Z,97097.3
2019-02-15T10:40:20.397Z,97095.3
2019-02-15T10:41:22.564Z,97096.1
2019-02-15T10:42:24.720Z,97093.7
2019-02-15T10:43:26.585Z,97097.3
2019-02-15T10:44:28.492Z,97098.5
2019-02-15T10:45:30.654Z,97092.4
2019-02-15T10:47:37.804Z,97091.7
2019-02-15T10:48:39.976Z,97092.2
2019-02-15T10:49:42.135Z,97091.1
2019-02-15T10:50:44.292Z,97090.1
2019-02-15T10:51:46.731Z,97088.4
2019-02-15T10:52:49.162Z,97088.3
2019-02-15T10:53:51.589Z,97090.2
2019-02-15T10:54:53.455Z,97087.6
2019-02-15T10:55:55.900Z,97087.7
2019-02-15T10:56:58.085Z,97083.5
2019-02-15T10:58:00.258Z,97084.7
2019-02-15T10:59:02.714Z,97080.5
2019-02-15T11:00:05.158Z,97082.3
2019-02-15T11:01:07.586Z,97086.3
2019-02-15T11:02:10.028Z,97085.7
2019-02-15T11:03:12.455Z,97082.1
2019-02-15T11:04:13.916Z,97083.1
2019-02-15T11:05:16.421Z,97082
2019-02-15T11:06:18.293Z,97079.9
2019-02-15T11:07:20.468Z,97081.8
2019-02-15T11:08:22.359Z,97080.7
2019-02-15T11:09:24.238Z,97080.2
2019-02-15T11:10:26.692Z,97077.2
2019-02-15T11:11:28.863Z,97078.1
2019-02-15T11:12:30.468Z,97077.5
2019-02-15T11:13:32.887Z,97079.4
2019-02-15T11:14:35.310Z,97079.5
2019-02-15T11:15:37.226Z,97079
2019-02-15T11:17:44.645Z,97076.3
2019-02-15T11:18:46.803Z,97075.6
2019-02-15T11:19:49.240Z,97069.4
2019-02-15T11:20:51.138Z,97071.9
2019-02-15T11:21:53.031Z,97071
2019-02-15T11:22:55.186Z,97064.1
2019-02-15T11:23:57.618Z,97066.2
2019-02-15T11:25:00.173Z,97068.3
2019-02-15T11:26:04.493Z,97067.4
2019-02-15T11:27:07.157Z,97065.1
2019-02-15T11:28:09.067Z,97062.1
2019-02-15T11:29:11.240Z,97062.3
2019-02-15T11:30:13.667Z,97059.8
2019-02-15T11:31:17.510Z,97059.6
2019-02-15T11:32:19.673Z,97054.4
2019-02-15T11:33:22.102Z,97052.1
2019-02-15T11:34:23.699Z,97048
2019-02-15T11:35:25.567Z,97049.4
2019-02-15T11:36:29.772Z,97045.9
2019-02-15T11:37:31.441Z,97049.2
2019-02-15T11:38:33.867Z,97045.6
2019-02-15T11:39:36.296Z,97049.7
2019-02-15T11:40:38.735Z,97047.6
2019-02-15T11:41:41.198Z,97048.6
2019-02-15T11:42:43.324Z,97044.5
2019-02-15T11:43:45.744Z,97038.8
2019-02-15T11:44:47.893Z,97037.1
2019-02-15T11:45:50.044Z,97040.7
2019-02-15T11:47:57.473Z,97035
2019-02-15T11:48:59.626Z,97035.2
2019-02-15T11:50:01.802Z,97029.8
2019-02-15T11:51:03.958Z,97029.7
2019-02-15T11:52:06.094Z,97035
2019-02-15T11:53:08.527Z,97027.9
2019-02-15T11:54:10.966Z,97029.2
2019-02-15T11:55:13.133Z,97031
2019-02-15T11:56:15.565Z,97031.4
2019-02-15T11:57:17.994Z,97028.2
2019-02-15T11:58:20.438Z,97024.6
2019-02-15T11:59:22.884Z,97028.8
2019-02-15T12:00:25.025Z,97029.7
2019-02-15T12:01:27.668Z,97028.4
2019-02-15T12:02:30.071Z,97026.6
2019-02-15T12:03:32.512Z,97029.2
2019-02-15T12:04:34.664Z,97025.6
2019-02-15T12:05:37.096Z,97030
2019-02-15T12:06:39.514Z,97024.4
2019-02-15T12:07:41.455Z,97022.2
2019-02-15T12:08:43.964Z,97020.9
2019-02-15T12:09:46.385Z,97018.9
2019-02-15T12:10:48.304Z,97022.2
2019-02-15T12:11:50.202Z,97019.9
2019-02-15T12:12:52.619Z,97015.4
2019-02-15T12:13:55.042Z,97011.6
2019-02-15T12:14:56.949Z,97011.3
2019-02-15T12:15:59.381Z,97019.8
2019-02-15T12:18:06.549Z,97012
2019-02-15T12:19:08.435Z,97014.2
2019-02-15T12:20:10.577Z,97011.1
2019-02-15T12:21:12.951Z,97008.6
2019-02-15T12:22:15.102Z,97013.4
2019-02-15T12:23:17.534Z,97010.3
2019-02-15T12:24:19.686Z,97014.8
2019-02-15T12:25:21.838Z,97014.4
2019-02-15T12:26:24.262Z,97009.8
2019-02-15T12:27:26.431Z,97008.4
2019-02-15T12:28:28.322Z,97013.1
2019-02-15T12:29:32.433Z,97010
2019-02-15T12:30:34.872Z,97009.6
2019-02-15T12:31:36.792Z,97005.9
2019-02-15T12:32:39.242Z,97004.5
2019-02-15T12:33:41.387Z,97002.7
2019-02-15T12:34:43.563Z,97002
2019-02-15T12:35:45.722Z,97003.8
2019-02-15T12:36:48.151Z,97002
2019-02-15T12:37:50.576Z,97004.3
2019-02-15T12:38:53.013Z,97002.1
2019-02-15T12:39:55.441Z,97002
2019-02-15T12:40:57.865Z,97001.3
2019-02-15T12:42:00.041Z,97001.5
2019-02-15T12:43:02.464Z,96995.5
2019-02-15T12:44:04.622Z,96995.9
2019-02-15T12:45:07.053Z,96991
2019-02-15T12:46:09.486Z,96996.6
2019-02-15T12:48:16.915Z,96986.1
2019-02-15T12:49:19.082Z,96987.8
2019-02-15T12:50:21.527Z,96985.9